sensor_id;sensor_type;location;lat;lon;timestamp;P1;durP1;ratioP1;P2;durP2;ratioP2
20894;SDS011;10607;42.066;24.742;2022-09-03T00:00:21;16.30;;;13.30;;
20894;SDS011;10607;42.066;24.742;2022-09-03T00:03:06;20.00;;;12.80;;
20894;SDS011;10607;42.066;24.742;2022-09-03T00:05:42;21.15;;;12.48;;
20894;SDS011;10607;42.066;24.742;2022-09-03T00:14:06;16.60;;;11.48;;
20894;SDS011;10607;42.066;24.742;2022-09-03T00:16:43;16.27;;;12.07;;
20894;SDS011;10607;42.066;24.742;2022-09-03T00:19:12;16.98;;;12.05;;
20894;SDS011;10607;42.066;24.742;2022-09-03T00:21:52;15.93;;;11.40;;
20894;SDS011;10607;42.066;24.742;2022-09-03T00:24:23;14.43;;;11.43;;
20894;SDS011;10607;42.066;24.742;2022-09-03T00:26:54;15.65;;;11.93;;
20894;SDS011;10607;42.066;24.742;2022-09-03T00:29:32;24.27;;;12.82;;
20894;SDS011;10607;42.066;24.742;2022-09-03T00:32:06;16.67;;;11.60;;
20894;SDS011;10607;42.066;24.742;2022-09-03T00:34:39;14.80;;;10.73;;
20894;SDS011;10607;42.066;24.742;2022-09-03T00:37:09;17.05;;;11.93;;
20894;SDS011;10607;42.066;24.742;2022-09-03T00:39:35;16.38;;;11.35;;
20894;SDS011;10607;42.066;24.742;2022-09-03T01:00:28;17.98;;;10.98;;
20894;SDS011;10607;42.066;24.742;2022-09-03T01:16:36;12.13;;;9.90;;
20894;SDS011;10607;42.066;24.742;2022-09-03T01:27:35;12.95;;;7.82;;
20894;SDS011;10607;42.066;24.742;2022-09-03T01:30:12;12.23;;;7.43;;
20894;SDS011;10607;42.066;24.742;2022-09-03T01:46:19;10.02;;;9.02;;
20894;SDS011;10607;42.066;24.742;2022-09-03T01:51:35;12.75;;;8.43;;
20894;SDS011;10607;42.066;24.742;2022-09-03T01:59:43;9.20;;;7.95;;
20894;SDS011;10607;42.066;24.742;2022-09-03T02:02:18;14.93;;;8.60;;
20894;SDS011;10607;42.066;24.742;2022-09-03T02:04:58;14.18;;;8.50;;
20894;SDS011;10607;42.066;24.742;2022-09-03T02:07:28;12.25;;;7.38;;
20894;SDS011;10607;42.066;24.742;2022-09-03T02:09:59;10.93;;;7.03;;
20894;SDS011;10607;42.066;24.742;2022-09-03T02:12:28;9.02;;;6.65;;
20894;SDS011;10607;42.066;24.742;2022-09-03T02:14:59;11.27;;;7.43;;
20894;SDS011;10607;42.066;24.742;2022-09-03T02:17:28;10.13;;;7.78;;
20894;SDS011;10607;42.066;24.742;2022-09-03T02:19:57;13.25;;;7.53;;
20894;SDS011;10607;42.066;24.742;2022-09-03T02:22:32;10.20;;;8.07;;
20894;SDS011;10607;42.066;24.742;2022-09-03T02:24:59;12.63;;;8.20;;
20894;SDS011;10607;42.066;24.742;2022-09-03T02:27:25;11.73;;;7.93;;
20894;SDS011;10607;42.066;24.742;2022-09-03T02:29:51;11.38;;;9.07;;
20894;SDS011;10607;42.066;24.742;2022-09-03T02:32:17;9.45;;;7.85;;
20894;SDS011;10607;42.066;24.742;2022-09-03T02:34:42;9.13;;;8.07;;
20894;SDS011;10607;42.066;24.742;2022-09-03T02:37:15;16.13;;;8.80;;
20894;SDS011;10607;42.066;24.742;2022-09-03T02:39:43;12.35;;;8.07;;
20894;SDS011;10607;42.066;24.742;2022-09-03T02:42:09;14.13;;;8.77;;
20894;SDS011;10607;42.066;24.742;2022-09-03T02:44:37;11.23;;;8.27;;
20894;SDS011;10607;42.066;24.742;2022-09-03T02:47:08;11.57;;;8.40;;
20894;SDS011;10607;42.066;24.742;2022-09-03T02:49:34;11.57;;;8.23;;
20894;SDS011;10607;42.066;24.742;2022-09-03T02:52:00;12.27;;;7.63;;
20894;SDS011;10607;42.066;24.742;2022-09-03T02:54:31;11.48;;;8.73;;
20894;SDS011;10607;42.066;24.742;2022-09-03T02:57:00;9.07;;;8.13;;
20894;SDS011;10607;42.066;24.742;2022-09-03T02:59:26;9.95;;;7.63;;
20894;SDS011;10607;42.066;24.742;2022-09-03T03:01:54;11.27;;;8.07;;
20894;SDS011;10607;42.066;24.742;2022-09-03T03:04:20;9.93;;;7.93;;
20894;SDS011;10607;42.066;24.742;2022-09-03T03:06:46;11.02;;;9.02;;
20894;SDS011;10607;42.066;24.742;2022-09-03T03:09:14;14.32;;;8.50;;
20894;SDS011;10607;42.066;24.742;2022-09-03T03:11:40;10.48;;;9.30;;
20894;SDS011;10607;42.066;24.742;2022-09-03T03:14:06;15.48;;;8.45;;
20894;SDS011;10607;42.066;24.742;2022-09-03T03:16:31;10.63;;;7.90;;
20894;SDS011;10607;42.066;24.742;2022-09-03T03:18:56;13.13;;;8.35;;
20894;SDS011;10607;42.066;24.742;2022-09-03T03:21:22;10.43;;;9.23;;
20894;SDS011;10607;42.066;24.742;2022-09-03T03:23:47;14.65;;;10.10;;
20894;SDS011;10607;42.066;24.742;2022-09-03T03:26:14;12.35;;;9.02;;
20894;SDS011;10607;42.066;24.742;2022-09-03T03:28:42;16.58;;;9.32;;
20894;SDS011;10607;42.066;24.742;2022-09-03T03:31:09;11.68;;;8.73;;
20894;SDS011;10607;42.066;24.742;2022-09-03T03:33:37;13.85;;;8.45;;
20894;SDS011;10607;42.066;24.742;2022-09-03T03:36:10;13.43;;;8.57;;
20894;SDS011;10607;42.066;24.742;2022-09-03T03:38:38;13.95;;;8.50;;
20894;SDS011;10607;42.066;24.742;2022-09-03T03:43:34;15.30;;;8.75;;
20894;SDS011;10607;42.066;24.742;2022-09-03T03:45:59;11.02;;;8.95;;
20894;SDS011;10607;42.066;24.742;2022-09-03T03:48:25;11.38;;;10.13;;
20894;SDS011;10607;42.066;24.742;2022-09-03T03:50:50;10.43;;;9.32;;
20894;SDS011;10607;42.066;24.742;2022-09-03T03:53:16;12.20;;;9.77;;
20894;SDS011;10607;42.066;24.742;2022-09-03T03:55:42;11.15;;;10.05;;
20894;SDS011;10607;42.066;24.742;2022-09-03T03:58:07;11.15;;;9.68;;
20894;SDS011;10607;42.066;24.742;2022-09-03T04:00:33;13.93;;;10.02;;
20894;SDS011;10607;42.066;24.742;2022-09-03T04:03:01;13.77;;;9.45;;
20894;SDS011;10607;42.066;24.742;2022-09-03T04:05:26;11.57;;;8.70;;
20894;SDS011;10607;42.066;24.742;2022-09-03T04:07:52;11.55;;;8.88;;
20894;SDS011;10607;42.066;24.742;2022-09-03T04:10:17;10.23;;;8.60;;
20894;SDS011;10607;42.066;24.742;2022-09-03T04:12:42;15.65;;;8.85;;
20894;SDS011;10607;42.066;24.742;2022-09-03T04:15:08;9.18;;;8.27;;
20894;SDS011;10607;42.066;24.742;2022-09-03T04:17:34;13.27;;;9.00;;
20894;SDS011;10607;42.066;24.742;2022-09-03T04:19:59;14.52;;;8.88;;
20894;SDS011;10607;42.066;24.742;2022-09-03T04:22:26;12.23;;;8.60;;
20894;SDS011;10607;42.066;24.742;2022-09-03T04:24:53;10.30;;;9.10;;
20894;SDS011;10607;42.066;24.742;2022-09-03T04:27:18;15.07;;;8.13;;
20894;SDS011;10607;42.066;24.742;2022-09-03T04:29:44;12.95;;;8.75;;
20894;SDS011;10607;42.066;24.742;2022-09-03T04:32:09;12.13;;;8.35;;
20894;SDS011;10607;42.066;24.742;2022-09-03T04:34:54;16.23;;;7.93;;
20894;SDS011;10607;42.066;24.742;2022-09-03T04:37:19;14.60;;;7.90;;
20894;SDS011;10607;42.066;24.742;2022-09-03T04:39:45;18.83;;;8.05;;
20894;SDS011;10607;42.066;24.742;2022-09-03T04:42:10;11.65;;;7.72;;
20894;SDS011;10607;42.066;24.742;2022-09-03T04:44:36;12.63;;;7.65;;
20894;SDS011;10607;42.066;24.742;2022-09-03T04:47:03;13.43;;;8.80;;
20894;SDS011;10607;42.066;24.742;2022-09-03T04:49:29;16.45;;;8.55;;
20894;SDS011;10607;42.066;24.742;2022-09-03T04:51:55;12.20;;;8.73;;
20894;SDS011;10607;42.066;24.742;2022-09-03T04:54:20;12.05;;;8.55;;
20894;SDS011;10607;42.066;24.742;2022-09-03T04:56:46;18.15;;;9.70;;
20894;SDS011;10607;42.066;24.742;2022-09-03T04:59:11;18.83;;;9.55;;
20894;SDS011;10607;42.066;24.742;2022-09-03T05:01:37;11.77;;;8.32;;
20894;SDS011;10607;42.066;24.742;2022-09-03T05:04:04;19.10;;;8.77;;
20894;SDS011;10607;42.066;24.742;2022-09-03T05:06:31;13.30;;;8.95;;
20894;SDS011;10607;42.066;24.742;2022-09-03T05:08:57;11.35;;;8.50;;
20894;SDS011;10607;42.066;24.742;2022-09-03T05:11:24;15.13;;;8.65;;
20894;SDS011;10607;42.066;24.742;2022-09-03T05:13:51;16.67;;;8.75;;
20894;SDS011;10607;42.066;24.742;2022-09-03T05:16:18;12.77;;;8.55;;
20894;SDS011;10607;42.066;24.742;2022-09-03T05:18:45;15.10;;;10.98;;
20894;SDS011;10607;42.066;24.742;2022-09-03T05:21:12;25.25;;;17.17;;
20894;SDS011;10607;42.066;24.742;2022-09-03T05:23:40;16.60;;;9.90;;
20894;SDS011;10607;42.066;24.742;2022-09-03T05:26:12;14.48;;;9.70;;
20894;SDS011;10607;42.066;24.742;2022-09-03T05:28:42;14.43;;;8.73;;
20894;SDS011;10607;42.066;24.742;2022-09-03T05:31:13;13.70;;;9.48;;
20894;SDS011;10607;42.066;24.742;2022-09-03T05:33:41;27.30;;;10.43;;
20894;SDS011;10607;42.066;24.742;2022-09-03T05:36:09;13.88;;;9.15;;
20894;SDS011;10607;42.066;24.742;2022-09-03T05:38:36;15.35;;;8.63;;
20894;SDS011;10607;42.066;24.742;2022-09-03T05:41:03;11.95;;;8.23;;
20894;SDS011;10607;42.066;24.742;2022-09-03T05:43:30;16.02;;;8.38;;
20894;SDS011;10607;42.066;24.742;2022-09-03T05:45:57;10.35;;;8.60;;
20894;SDS011;10607;42.066;24.742;2022-09-03T05:48:27;15.02;;;8.15;;
20894;SDS011;10607;42.066;24.742;2022-09-03T05:51:04;16.30;;;9.00;;
20894;SDS011;10607;42.066;24.742;2022-09-03T05:53:35;12.65;;;8.88;;
20894;SDS011;10607;42.066;24.742;2022-09-03T05:56:07;21.80;;;9.70;;
20894;SDS011;10607;42.066;24.742;2022-09-03T05:58:40;20.02;;;8.55;;
20894;SDS011;10607;42.066;24.742;2022-09-03T06:01:16;19.52;;;8.10;;
20894;SDS011;10607;42.066;24.742;2022-09-03T06:03:43;10.38;;;8.05;;
20894;SDS011;10607;42.066;24.742;2022-09-03T06:06:10;19.77;;;7.63;;
20894;SDS011;10607;42.066;24.742;2022-09-03T06:08:38;15.73;;;8.13;;
20894;SDS011;10607;42.066;24.742;2022-09-03T06:11:04;10.57;;;7.97;;
20894;SDS011;10607;42.066;24.742;2022-09-03T06:13:31;14.15;;;8.32;;
20894;SDS011;10607;42.066;24.742;2022-09-03T06:16:01;15.65;;;7.00;;
20894;SDS011;10607;42.066;24.742;2022-09-03T06:18:29;17.23;;;6.95;;
20894;SDS011;10607;42.066;24.742;2022-09-03T06:20:55;13.52;;;7.82;;
20894;SDS011;10607;42.066;24.742;2022-09-03T06:23:22;11.73;;;7.55;;
20894;SDS011;10607;42.066;24.742;2022-09-03T06:25:58;17.10;;;7.63;;
20894;SDS011;10607;42.066;24.742;2022-09-03T06:28:38;11.90;;;7.50;;
20894;SDS011;10607;42.066;24.742;2022-09-03T06:31:06;14.10;;;7.70;;
20894;SDS011;10607;42.066;24.742;2022-09-03T06:33:34;11.73;;;7.50;;
20894;SDS011;10607;42.066;24.742;2022-09-03T06:36:02;8.52;;;7.63;;
20894;SDS011;10607;42.066;24.742;2022-09-03T06:38:29;10.43;;;8.05;;
20894;SDS011;10607;42.066;24.742;2022-09-03T06:40:57;9.48;;;8.38;;
20894;SDS011;10607;42.066;24.742;2022-09-03T06:43:29;11.70;;;7.97;;
20894;SDS011;10607;42.066;24.742;2022-09-03T06:45:59;16.10;;;7.95;;
20894;SDS011;10607;42.066;24.742;2022-09-03T06:48:35;8.52;;;7.18;;
20894;SDS011;10607;42.066;24.742;2022-09-03T06:51:06;14.25;;;7.90;;
20894;SDS011;10607;42.066;24.742;2022-09-03T06:53:43;10.57;;;7.15;;
20894;SDS011;10607;42.066;24.742;2022-09-03T06:56:14;11.98;;;7.95;;
20894;SDS011;10607;42.066;24.742;2022-09-03T06:58:42;11.07;;;8.02;;
20894;SDS011;10607;42.066;24.742;2022-09-03T07:01:14;14.80;;;8.27;;
20894;SDS011;10607;42.066;24.742;2022-09-03T07:03:42;11.38;;;7.60;;
20894;SDS011;10607;42.066;24.742;2022-09-03T07:06:16;20.08;;;8.50;;
20894;SDS011;10607;42.066;24.742;2022-09-03T07:08:43;11.35;;;8.43;;
20894;SDS011;10607;42.066;24.742;2022-09-03T07:11:11;12.60;;;7.95;;
20894;SDS011;10607;42.066;24.742;2022-09-03T07:13:39;11.30;;;7.65;;
20894;SDS011;10607;42.066;24.742;2022-09-03T07:16:15;13.10;;;8.48;;
20894;SDS011;10607;42.066;24.742;2022-09-03T07:18:42;9.35;;;6.93;;
20894;SDS011;10607;42.066;24.742;2022-09-03T07:21:10;11.07;;;7.95;;
20894;SDS011;10607;42.066;24.742;2022-09-03T07:23:46;11.50;;;7.45;;
20894;SDS011;10607;42.066;24.742;2022-09-03T07:26:14;11.00;;;7.70;;
20894;SDS011;10607;42.066;24.742;2022-09-03T07:28:41;10.05;;;7.47;;
20894;SDS011;10607;42.066;24.742;2022-09-03T07:31:14;11.95;;;7.47;;
20894;SDS011;10607;42.066;24.742;2022-09-03T07:33:45;12.57;;;6.90;;
20894;SDS011;10607;42.066;24.742;2022-09-03T07:36:15;12.88;;;7.53;;
20894;SDS011;10607;42.066;24.742;2022-09-03T07:38:42;9.45;;;6.70;;
20894;SDS011;10607;42.066;24.742;2022-09-03T07:41:09;13.50;;;7.40;;
20894;SDS011;10607;42.066;24.742;2022-09-03T07:43:37;10.07;;;6.95;;
20894;SDS011;10607;42.066;24.742;2022-09-03T07:46:04;15.85;;;7.70;;
20894;SDS011;10607;42.066;24.742;2022-09-03T07:48:31;14.32;;;7.28;;
20894;SDS011;10607;42.066;24.742;2022-09-03T07:50:58;7.97;;;6.78;;
20894;SDS011;10607;42.066;24.742;2022-09-03T07:53:25;12.95;;;7.32;;
20894;SDS011;10607;42.066;24.742;2022-09-03T07:55:51;11.77;;;7.30;;
20894;SDS011;10607;42.066;24.742;2022-09-03T07:58:17;10.48;;;6.82;;
20894;SDS011;10607;42.066;24.742;2022-09-03T08:00:42;9.13;;;6.60;;
20894;SDS011;10607;42.066;24.742;2022-09-03T08:03:08;12.57;;;7.90;;
20894;SDS011;10607;42.066;24.742;2022-09-03T08:05:35;10.93;;;7.07;;
20894;SDS011;10607;42.066;24.742;2022-09-03T08:08:04;9.88;;;7.43;;
20894;SDS011;10607;42.066;24.742;2022-09-03T08:10:34;12.40;;;6.85;;
20894;SDS011;10607;42.066;24.742;2022-09-03T08:13:00;10.65;;;6.93;;
20894;SDS011;10607;42.066;24.742;2022-09-03T08:15:29;14.00;;;7.05;;
20894;SDS011;10607;42.066;24.742;2022-09-03T08:17:55;7.55;;;6.60;;
20894;SDS011;10607;42.066;24.742;2022-09-03T08:20:20;10.10;;;6.30;;
20894;SDS011;10607;42.066;24.742;2022-09-03T08:22:46;12.35;;;6.65;;
20894;SDS011;10607;42.066;24.742;2022-09-03T08:25:12;8.02;;;7.13;;
20894;SDS011;10607;42.066;24.742;2022-09-03T08:27:38;15.05;;;6.50;;
20894;SDS011;10607;42.066;24.742;2022-09-03T08:30:03;8.88;;;6.60;;
20894;SDS011;10607;42.066;24.742;2022-09-03T08:32:30;8.77;;;6.80;;
20894;SDS011;10607;42.066;24.742;2022-09-03T08:34:55;7.97;;;6.20;;
20894;SDS011;10607;42.066;24.742;2022-09-03T08:37:20;6.70;;;5.93;;
20894;SDS011;10607;42.066;24.742;2022-09-03T08:39:53;11.02;;;6.18;;
20894;SDS011;10607;42.066;24.742;2022-09-03T08:42:24;8.60;;;6.30;;
20894;SDS011;10607;42.066;24.742;2022-09-03T08:44:58;10.35;;;6.82;;
20894;SDS011;10607;42.066;24.742;2022-09-03T08:47:33;9.38;;;6.25;;
20894;SDS011;10607;42.066;24.742;2022-09-03T08:50:08;20.98;;;15.80;;
20894;SDS011;10607;42.066;24.742;2022-09-03T08:53:01;9.70;;;6.60;;
20894;SDS011;10607;42.066;24.742;2022-09-03T08:58:21;10.00;;;5.97;;
20894;SDS011;10607;42.066;24.742;2022-09-03T09:00:58;10.13;;;5.80;;
20894;SDS011;10607;42.066;24.742;2022-09-03T09:17:34;9.77;;;7.38;;
20894;SDS011;10607;42.066;24.742;2022-09-03T09:23:19;9.38;;;7.07;;
20894;SDS011;10607;42.066;24.742;2022-09-03T09:25:54;12.30;;;7.38;;
20894;SDS011;10607;42.066;24.742;2022-09-03T09:28:28;14.43;;;6.78;;
20894;SDS011;10607;42.066;24.742;2022-09-03T09:30:57;9.35;;;6.93;;
20894;SDS011;10607;42.066;24.742;2022-09-03T09:33:28;14.80;;;7.10;;
20894;SDS011;10607;42.066;24.742;2022-09-03T09:35:55;9.93;;;6.63;;
20894;SDS011;10607;42.066;24.742;2022-09-03T09:38:29;14.25;;;7.15;;
20894;SDS011;10607;42.066;24.742;2022-09-03T09:41:06;9.18;;;6.78;;
20894;SDS011;10607;42.066;24.742;2022-09-03T09:43:34;9.35;;;7.20;;
20894;SDS011;10607;42.066;24.742;2022-09-03T09:46:05;9.68;;;6.88;;
20894;SDS011;10607;42.066;24.742;2022-09-03T09:48:36;12.05;;;7.03;;
20894;SDS011;10607;42.066;24.742;2022-09-03T09:51:29;9.05;;;7.00;;
20894;SDS011;10607;42.066;24.742;2022-09-03T09:54:38;8.07;;;6.30;;
20894;SDS011;10607;42.066;24.742;2022-09-03T09:57:02;10.93;;;6.57;;
20894;SDS011;10607;42.066;24.742;2022-09-03T09:59:30;10.88;;;7.13;;
20894;SDS011;10607;42.066;24.742;2022-09-03T10:04:50;10.20;;;6.70;;
20894;SDS011;10607;42.066;24.742;2022-09-03T10:07:23;9.55;;;7.22;;
20894;SDS011;10607;42.066;24.742;2022-09-03T10:10:02;9.63;;;6.28;;
20894;SDS011;10607;42.066;24.742;2022-09-03T10:18:11;9.98;;;6.68;;
20894;SDS011;10607;42.066;24.742;2022-09-03T10:20:57;9.55;;;7.20;;
20894;SDS011;10607;42.066;24.742;2022-09-03T10:23:32;11.93;;;7.30;;
20894;SDS011;10607;42.066;24.742;2022-09-03T10:26:14;11.13;;;6.85;;
20894;SDS011;10607;42.066;24.742;2022-09-03T10:28:50;8.98;;;6.47;;
20894;SDS011;10607;42.066;24.742;2022-09-03T10:36:33;9.95;;;6.55;;
20894;SDS011;10607;42.066;24.742;2022-09-03T10:44:13;11.45;;;7.03;;
20894;SDS011;10607;42.066;24.742;2022-09-03T10:47:06;10.35;;;7.10;;
20894;SDS011;10607;42.066;24.742;2022-09-03T10:50:14;10.52;;;6.75;;
20894;SDS011;10607;42.066;24.742;2022-09-03T11:06:48;12.55;;;6.35;;
20894;SDS011;10607;42.066;24.742;2022-09-03T11:09:22;10.05;;;6.93;;
20894;SDS011;10607;42.066;24.742;2022-09-03T11:11:58;10.02;;;6.25;;
20894;SDS011;10607;42.066;24.742;2022-09-03T11:14:34;6.80;;;6.13;;
20894;SDS011;10607;42.066;24.742;2022-09-03T11:17:06;9.30;;;6.80;;
20894;SDS011;10607;42.066;24.742;2022-09-03T11:19:56;9.38;;;6.18;;
20894;SDS011;10607;42.066;24.742;2022-09-03T11:22:34;9.18;;;6.32;;
20894;SDS011;10607;42.066;24.742;2022-09-03T11:25:01;8.55;;;6.22;;
20894;SDS011;10607;42.066;24.742;2022-09-03T11:30:00;6.70;;;5.50;;
20894;SDS011;10607;42.066;24.742;2022-09-03T11:35:39;8.15;;;6.30;;
20894;SDS011;10607;42.066;24.742;2022-09-03T11:41:03;7.93;;;6.40;;
20894;SDS011;10607;42.066;24.742;2022-09-03T11:43:27;8.75;;;5.93;;
20894;SDS011;10607;42.066;24.742;2022-09-03T11:46:01;8.80;;;5.70;;
20894;SDS011;10607;42.066;24.742;2022-09-03T11:48:44;6.30;;;5.50;;
20894;SDS011;10607;42.066;24.742;2022-09-03T11:51:31;12.40;;;6.10;;
20894;SDS011;10607;42.066;24.742;2022-09-03T11:56:32;11.20;;;5.85;;
20894;SDS011;10607;42.066;24.742;2022-09-03T12:01:37;8.68;;;5.47;;
20894;SDS011;10607;42.066;24.742;2022-09-03T12:04:06;7.03;;;5.45;;
20894;SDS011;10607;42.066;24.742;2022-09-03T12:06:37;10.77;;;6.13;;
20894;SDS011;10607;42.066;24.742;2022-09-03T12:14:46;10.63;;;4.80;;
20894;SDS011;10607;42.066;24.742;2022-09-03T12:19:57;6.00;;;4.65;;
20894;SDS011;10607;42.066;24.742;2022-09-03T12:22:24;8.63;;;4.53;;
20894;SDS011;10607;42.066;24.742;2022-09-03T12:25:10;5.30;;;4.03;;
20894;SDS011;10607;42.066;24.742;2022-09-03T12:27:37;8.90;;;4.03;;
20894;SDS011;10607;42.066;24.742;2022-09-03T12:30:13;10.30;;;4.20;;
20894;SDS011;10607;42.066;24.742;2022-09-03T12:32:41;4.20;;;3.80;;
20894;SDS011;10607;42.066;24.742;2022-09-03T12:35:17;6.07;;;3.58;;
20894;SDS011;10607;42.066;24.742;2022-09-03T12:37:45;5.45;;;3.50;;
20894;SDS011;10607;42.066;24.742;2022-09-03T12:40:21;8.02;;;3.60;;
20894;SDS011;10607;42.066;24.742;2022-09-03T12:42:48;4.65;;;3.15;;
20894;SDS011;10607;42.066;24.742;2022-09-03T12:45:17;7.97;;;3.50;;
20894;SDS011;10607;42.066;24.742;2022-09-03T12:47:52;9.75;;;3.42;;
20894;SDS011;10607;42.066;24.742;2022-09-03T12:50:18;3.47;;;2.50;;
20894;SDS011;10607;42.066;24.742;2022-09-03T12:52:50;4.57;;;2.80;;
20894;SDS011;10607;42.066;24.742;2022-09-03T12:55:36;4.30;;;2.78;;
20894;SDS011;10607;42.066;24.742;2022-09-03T12:58:27;4.50;;;2.90;;
20894;SDS011;10607;42.066;24.742;2022-09-03T13:03:32;3.65;;;2.60;;
20894;SDS011;10607;42.066;24.742;2022-09-03T13:06:02;4.50;;;2.75;;
20894;SDS011;10607;42.066;24.742;2022-09-03T13:08:37;6.88;;;2.90;;
20894;SDS011;10607;42.066;24.742;2022-09-03T13:11:18;3.92;;;2.40;;
20894;SDS011;10607;42.066;24.742;2022-09-03T13:19:25;2.90;;;2.22;;
20894;SDS011;10607;42.066;24.742;2022-09-03T13:40:20;2.40;;;1.60;;
20894;SDS011;10607;42.066;24.742;2022-09-03T13:42:55;1.92;;;1.00;;
20894;SDS011;10607;42.066;24.742;2022-09-03T13:45:30;3.35;;;1.48;;
20894;SDS011;10607;42.066;24.742;2022-09-03T13:48:07;3.03;;;2.00;;
20894;SDS011;10607;42.066;24.742;2022-09-03T13:57:04;2.75;;;1.50;;
20894;SDS011;10607;42.066;24.742;2022-09-03T13:59:59;2.47;;;1.40;;
20894;SDS011;10607;42.066;24.742;2022-09-03T14:02:54;3.83;;;1.75;;
20894;SDS011;10607;42.066;24.742;2022-09-03T14:05:35;2.08;;;1.17;;
20894;SDS011;10607;42.066;24.742;2022-09-03T14:22:12;5.43;;;1.30;;
20894;SDS011;10607;42.066;24.742;2022-09-03T14:24:54;1.73;;;0.98;;
20894;SDS011;10607;42.066;24.742;2022-09-03T14:27:28;1.92;;;0.90;;
20894;SDS011;10607;42.066;24.742;2022-09-03T14:30:06;2.25;;;0.93;;
20894;SDS011;10607;42.066;24.742;2022-09-03T14:49:51;2.10;;;1.90;;
20894;SDS011;10607;42.066;24.742;2022-09-03T14:53:22;6.20;;;1.80;;
20894;SDS011;10607;42.066;24.742;2022-09-03T14:58:29;2.17;;;1.98;;
20894;SDS011;10607;42.066;24.742;2022-09-03T15:11:56;7.25;;;2.20;;
20894;SDS011;10607;42.066;24.742;2022-09-03T15:14:26;2.70;;;1.98;;
20894;SDS011;10607;42.066;24.742;2022-09-03T15:17:00;2.90;;;2.35;;
20894;SDS011;10607;42.066;24.742;2022-09-03T15:24:54;7.13;;;2.47;;
20894;SDS011;10607;42.066;24.742;2022-09-03T15:37:57;3.28;;;2.28;;
20894;SDS011;10607;42.066;24.742;2022-09-03T15:43:11;3.45;;;1.90;;
20894;SDS011;10607;42.066;24.742;2022-09-03T15:51:05;2.50;;;2.08;;
20894;SDS011;10607;42.066;24.742;2022-09-03T15:53:53;4.00;;;2.22;;
20894;SDS011;10607;42.066;24.742;2022-09-03T15:56:26;6.13;;;2.17;;
20894;SDS011;10607;42.066;24.742;2022-09-03T15:59:02;9.30;;;5.03;;
20894;SDS011;10607;42.066;24.742;2022-09-03T16:02:03;3.92;;;2.08;;
20894;SDS011;10607;42.066;24.742;2022-09-03T16:15:12;3.60;;;2.25;;
20894;SDS011;10607;42.066;24.742;2022-09-03T16:17:55;3.85;;;2.38;;
20894;SDS011;10607;42.066;24.742;2022-09-03T16:20:26;5.97;;;2.70;;
20894;SDS011;10607;42.066;24.742;2022-09-03T16:23:09;3.92;;;2.78;;
20894;SDS011;10607;42.066;24.742;2022-09-03T16:28:23;6.90;;;3.50;;
20894;SDS011;10607;42.066;24.742;2022-09-03T16:38:48;4.32;;;2.80;;
20894;SDS011;10607;42.066;24.742;2022-09-03T16:41:24;5.43;;;2.38;;
20894;SDS011;10607;42.066;24.742;2022-09-03T16:52:31;10.25;;;5.80;;
20894;SDS011;10607;42.066;24.742;2022-09-03T16:58:22;4.22;;;2.88;;
20894;SDS011;10607;42.066;24.742;2022-09-03T17:01:02;3.65;;;2.20;;
20894;SDS011;10607;42.066;24.742;2022-09-03T17:09:23;2.45;;;1.80;;
20894;SDS011;10607;42.066;24.742;2022-09-03T17:22:39;5.95;;;1.88;;
20894;SDS011;10607;42.066;24.742;2022-09-03T17:31:08;3.97;;;2.60;;
20894;SDS011;10607;42.066;24.742;2022-09-03T17:34:58;8.43;;;3.17;;
20894;SDS011;10607;42.066;24.742;2022-09-03T17:42:30;7.25;;;2.95;;
20894;SDS011;10607;42.066;24.742;2022-09-03T17:45:14;4.00;;;2.95;;
20894;SDS011;10607;42.066;24.742;2022-09-03T17:50:44;5.70;;;3.25;;
20894;SDS011;10607;42.066;24.742;2022-09-03T17:53:21;5.57;;;2.17;;
20894;SDS011;10607;42.066;24.742;2022-09-03T17:56:17;3.30;;;2.33;;
20894;SDS011;10607;42.066;24.742;2022-09-03T17:59:17;5.32;;;2.55;;
20894;SDS011;10607;42.066;24.742;2022-09-03T18:01:45;6.38;;;2.97;;
20894;SDS011;10607;42.066;24.742;2022-09-03T18:06:54;8.75;;;2.45;;
20894;SDS011;10607;42.066;24.742;2022-09-03T18:09:32;3.63;;;2.72;;
20894;SDS011;10607;42.066;24.742;2022-09-03T18:19:43;6.03;;;2.53;;
20894;SDS011;10607;42.066;24.742;2022-09-03T18:22:33;7.38;;;3.05;;
20894;SDS011;10607;42.066;24.742;2022-09-03T18:25:24;7.53;;;3.80;;
20894;SDS011;10607;42.066;24.742;2022-09-03T18:28:11;9.63;;;5.28;;
20894;SDS011;10607;42.066;24.742;2022-09-03T18:30:58;15.10;;;5.47;;
20894;SDS011;10607;42.066;24.742;2022-09-03T18:33:42;7.72;;;4.60;;
20894;SDS011;10607;42.066;24.742;2022-09-03T18:36:26;3.63;;;2.70;;
20894;SDS011;10607;42.066;24.742;2022-09-03T18:48:20;4.45;;;2.72;;
20894;SDS011;10607;42.066;24.742;2022-09-03T18:51:32;7.28;;;2.55;;
20894;SDS011;10607;42.066;24.742;2022-09-03T18:54:31;6.85;;;3.33;;
20894;SDS011;10607;42.066;24.742;2022-09-03T18:57:25;10.18;;;5.22;;
20894;SDS011;10607;42.066;24.742;2022-09-03T19:00:21;5.50;;;4.40;;
20894;SDS011;10607;42.066;24.742;2022-09-03T19:15:24;6.80;;;3.85;;
20894;SDS011;10607;42.066;24.742;2022-09-03T19:21:32;4.63;;;3.83;;
20894;SDS011;10607;42.066;24.742;2022-09-03T19:24:24;9.63;;;4.07;;
20894;SDS011;10607;42.066;24.742;2022-09-03T19:36:50;5.35;;;4.63;;
20894;SDS011;10607;42.066;24.742;2022-09-03T19:40:43;6.05;;;4.65;;
20894;SDS011;10607;42.066;24.742;2022-09-03T19:54:46;5.90;;;5.03;;
20894;SDS011;10607;42.066;24.742;2022-09-03T19:57:35;8.85;;;4.70;;
20894;SDS011;10607;42.066;24.742;2022-09-03T20:00:22;5.40;;;4.90;;
20894;SDS011;10607;42.066;24.742;2022-09-03T20:03:06;5.43;;;4.88;;
20894;SDS011;10607;42.066;24.742;2022-09-03T20:05:50;9.25;;;4.75;;
20894;SDS011;10607;42.066;24.742;2022-09-03T20:08:34;6.32;;;4.93;;
20894;SDS011;10607;42.066;24.742;2022-09-03T20:11:20;5.55;;;5.00;;
20894;SDS011;10607;42.066;24.742;2022-09-03T20:13:47;7.95;;;5.13;;
20894;SDS011;10607;42.066;24.742;2022-09-03T20:22:07;6.13;;;4.82;;
20894;SDS011;10607;42.066;24.742;2022-09-03T20:30:40;7.38;;;5.18;;
20894;SDS011;10607;42.066;24.742;2022-09-03T20:36:23;10.18;;;5.45;;
20894;SDS011;10607;42.066;24.742;2022-09-03T20:49:15;9.80;;;5.35;;
20894;SDS011;10607;42.066;24.742;2022-09-03T20:51:53;6.88;;;5.50;;
20894;SDS011;10607;42.066;24.742;2022-09-03T20:54:31;7.85;;;5.43;;
20894;SDS011;10607;42.066;24.742;2022-09-03T20:57:14;5.80;;;4.97;;
20894;SDS011;10607;42.066;24.742;2022-09-03T21:10:39;6.25;;;5.65;;
20894;SDS011;10607;42.066;24.742;2022-09-03T21:19:17;5.80;;;5.30;;
20894;SDS011;10607;42.066;24.742;2022-09-03T21:22:14;8.32;;;5.22;;
20894;SDS011;10607;42.066;24.742;2022-09-03T21:24:46;10.45;;;5.03;;
20894;SDS011;10607;42.066;24.742;2022-09-03T21:27:22;7.28;;;5.43;;
20894;SDS011;10607;42.066;24.742;2022-09-03T21:35:29;6.75;;;5.93;;
20894;SDS011;10607;42.066;24.742;2022-09-03T21:40:42;7.68;;;5.53;;
20894;SDS011;10607;42.066;24.742;2022-09-03T21:48:37;6.15;;;5.55;;
20894;SDS011;10607;42.066;24.742;2022-09-03T21:51:14;6.00;;;5.40;;
20894;SDS011;10607;42.066;24.742;2022-09-03T22:04:42;7.30;;;6.03;;
20894;SDS011;10607;42.066;24.742;2022-09-03T22:10:23;6.70;;;6.00;;
20894;SDS011;10607;42.066;24.742;2022-09-03T22:15:28;9.68;;;6.00;;
20894;SDS011;10607;42.066;24.742;2022-09-03T22:17:58;12.30;;;6.30;;
20894;SDS011;10607;42.066;24.742;2022-09-03T22:20:30;6.85;;;6.07;;